createdAt,value
2023-05-22T00:26:28.619Z,4.10
2023-05-22T00:56:32.345Z,4.70
2023-05-22T01:26:36.486Z,4.17
2023-05-22T01:56:39.835Z,4.63
2023-05-22T02:26:43.367Z,4.95
2023-05-22T02:56:46.315Z,5.20
2023-05-22T03:26:50.713Z,5.60
2023-05-22T03:56:53.684Z,5.87
2023-05-22T04:26:57.246Z,6.20
2023-05-22T04:57:00.149Z,5.40
2023-05-22T05:27:04.839Z,5.90
2023-05-22T05:57:07.787Z,5.90
2023-05-22T06:27:12.021Z,4.10
2023-05-22T06:57:15.580Z,3.13
2023-05-22T07:27:19.961Z,2.90
2023-05-22T07:57:22.895Z,2.17
2023-05-22T08:27:27.842Z,2.13
2023-05-22T09:27:34.290Z,1.93
2023-05-22T10:27:41.701Z,2.10
2023-05-22T10:57:44.875Z,2.30
2023-05-22T11:27:49.095Z,2.67
2023-05-22T11:57:52.013Z,2.13
2023-05-22T12:27:55.586Z,2.20
2023-05-22T12:57:58.553Z,2.40
2023-05-22T13:28:01.992Z,2.87
2023-05-22T13:58:04.963Z,2.30
2023-05-22T14:28:08.950Z,2.10
2023-05-22T14:58:12.046Z,2.30
2023-05-22T15:28:16.350Z,2.60
2023-05-22T15:58:19.313Z,2.73
2023-05-22T16:28:23.124Z,2.47
2023-05-22T16:58:26.236Z,2.70
2023-05-22T17:28:29.375Z,3.30
2023-05-22T17:58:32.886Z,2.87
2023-05-22T18:28:36.300Z,2.67
2023-05-22T18:58:39.199Z,3.30
2023-05-22T19:28:43.447Z,3.53
2023-05-22T19:58:46.683Z,3.67
2023-05-22T20:28:50.067Z,4.00
2023-05-22T20:58:54.154Z,3.43
2023-05-22T21:28:57.316Z,3.37
2023-05-22T21:59:00.850Z,4.97
2023-05-22T22:29:03.810Z,4.30
2023-05-22T22:59:07.365Z,4.70
2023-05-22T23:29:10.684Z,5.00
2023-05-22T23:59:14.106Z,5.17
